createdAt,value
2022-11-16T00:04:53.549Z,950.73
2022-11-16T00:09:55.374Z,950.66
2022-11-16T00:14:57.359Z,950.47
2022-11-16T00:19:58.848Z,950.3
2022-11-16T00:25:00.479Z,950.23
2022-11-16T00:30:02.593Z,950.22
2022-11-16T00:35:04.337Z,950.29
2022-11-16T00:40:06.061Z,950.34
2022-11-16T00:45:07.750Z,950.43
2022-11-16T00:50:09.697Z,950.46
2022-11-16T00:55:11.633Z,950.56
2022-11-16T01:00:13.519Z,950.61
2022-11-16T01:05:14.674Z,950.61
2022-11-16T01:10:16.694Z,950.59
2022-11-16T01:15:18.899Z,950.51
2022-11-16T01:20:20.814Z,950.49
2022-11-16T01:25:22.958Z,950.43
2022-11-16T01:30:24.603Z,950.32
2022-11-16T01:35:26.669Z,950.22
2022-11-16T01:40:28.783Z,950.16
2022-11-16T01:45:30.861Z,950.08
2022-11-16T01:50:32.310Z,950.08
2022-11-16T01:55:33.635Z,950.26
2022-11-16T02:00:35.056Z,950.24
2022-11-16T02:05:37.141Z,950.05
2022-11-16T02:10:38.429Z,949.99
2022-11-16T02:15:40.149Z,950.05
2022-11-16T02:20:41.788Z,950.04
2022-11-16T02:25:43.323Z,950.1
2022-11-16T02:30:45.269Z,950.08
2022-11-16T02:35:46.966Z,950.1
2022-11-16T02:40:48.320Z,950.02
2022-11-16T02:45:49.739Z,949.96
2022-11-16T02:50:51.335Z,949.96
2022-11-16T02:55:53.172Z,949.94
2022-11-16T03:00:54.730Z,949.89
2022-11-16T03:01:00.923Z,949.88
2022-11-16T03:06:02.941Z,949.72
2022-11-16T03:16:06.057Z,949.88
2022-11-16T03:36:11.511Z,950.06
2022-11-16T03:46:15.263Z,950.01
2022-11-16T04:16:25.920Z,950.71
2022-11-16T04:21:27.657Z,950.75
2022-11-16T04:26:29.815Z,950.72
2022-11-16T04:31:31.679Z,950.78
2022-11-16T04:36:33.054Z,950.72
2022-11-16T04:41:34.909Z,950.77
2022-11-16T04:46:36.259Z,950.78
2022-11-16T04:51:38.178Z,950.78
2022-11-16T04:56:40.143Z,950.78
2022-11-16T05:01:41.878Z,950.79
2022-11-16T05:06:42.948Z,950.77
2022-11-16T05:11:45.043Z,950.81
2022-11-16T05:16:46.423Z,950.81
2022-11-16T05:21:47.666Z,950.8
2022-11-16T05:26:48.933Z,950.86
2022-11-16T05:31:50.840Z,950.91
2022-11-16T05:36:52.227Z,950.92
2022-11-16T05:41:53.565Z,950.96
2022-11-16T05:46:54.816Z,950.96
2022-11-16T05:51:56.450Z,951
2022-11-16T05:56:58.513Z,950.99
2022-11-16T06:02:00.163Z,950.96
2022-11-16T06:07:02.123Z,950.99
2022-11-16T06:12:04.227Z,950.99
2022-11-16T06:17:06.348Z,950.98
2022-11-16T06:22:07.768Z,950.99
2022-11-16T06:27:09.774Z,950.96
2022-11-16T06:32:11.234Z,950.99
2022-11-16T06:37:13.131Z,951
2022-11-16T06:42:15.227Z,951
2022-11-16T06:47:17.135Z,951
2022-11-16T06:52:19.009Z,951.02
2022-11-16T06:57:20.447Z,951.07
2022-11-16T07:02:22.197Z,951.1
2022-11-16T07:07:23.836Z,951
2022-11-16T07:12:25.343Z,951.01
2022-11-16T07:17:27.048Z,950.99
2022-11-16T07:22:28.725Z,950.95
2022-11-16T07:27:30.695Z,950.98
2022-11-16T07:32:32.040Z,951.01
2022-11-16T07:37:33.468Z,951.02
2022-11-16T07:42:34.674Z,951.1
2022-11-16T07:47:36.797Z,951.04
2022-11-16T07:52:37.656Z,951.03
2022-11-16T07:57:39.563Z,951.02
2022-11-16T08:02:41.754Z,951.02
2022-11-16T08:07:43.583Z,951
2022-11-16T08:12:45.482Z,951.05
2022-11-16T08:17:47.671Z,951.09
2022-11-16T08:22:49.740Z,951.12
2022-11-16T08:27:51.365Z,951.18
2022-11-16T08:32:53.433Z,951.18
2022-11-16T08:37:55.134Z,951.14
2022-11-16T08:42:56.958Z,951.15
2022-11-16T08:48:03.869Z,951.21
2022-11-16T08:53:00.069Z,951.16
2022-11-16T08:58:02.248Z,951.19
2022-11-16T09:03:04.310Z,951.28
2022-11-16T09:08:05.491Z,951.25
2022-11-16T09:13:07.546Z,951.26
2022-11-16T09:18:08.956Z,951.32
2022-11-16T09:23:10.675Z,951.33
2022-11-16T09:28:11.851Z,951.38
2022-11-16T09:33:13.820Z,951.44
2022-11-16T09:38:22.042Z,951.45
2022-11-16T09:43:17.031Z,951.42
2022-11-16T09:48:19.285Z,951.44
2022-11-16T09:53:20.425Z,951.43
2022-11-16T09:58:21.656Z,951.4
2022-11-16T10:03:23.265Z,951.41
2022-11-16T10:08:24.718Z,951.34
2022-11-16T10:13:26.592Z,951.31
2022-11-16T10:18:28.241Z,951.33
2022-11-16T10:23:30.461Z,951.37
2022-11-16T10:28:31.886Z,951.26
2022-11-16T10:33:33.871Z,951.24
2022-11-16T10:38:34.707Z,951.17
2022-11-16T10:43:36.939Z,951.18
2022-11-16T10:48:38.020Z,951.15
2022-11-16T10:53:39.396Z,951.21
2022-11-16T10:58:40.736Z,951.18
2022-11-16T11:03:42.239Z,951.16
2022-11-16T11:08:43.632Z,951.16
2022-11-16T11:13:45.683Z,951.18
2022-11-16T11:18:47.790Z,951.15
2022-11-16T11:23:49.098Z,951.06
2022-11-16T11:28:51.187Z,951.07
2022-11-16T11:33:53.450Z,951.11
2022-11-16T11:38:54.801Z,951.08
2022-11-16T11:43:56.102Z,951.1
2022-11-16T11:48:57.929Z,951.19
2022-11-16T11:53:59.853Z,951.12
2022-11-16T11:59:01.907Z,951.13
2022-11-16T12:04:03.364Z,951.14
2022-11-16T12:09:05.068Z,951.15
2022-11-16T12:14:06.402Z,951.16
2022-11-16T12:19:08.568Z,951.16
2022-11-16T12:24:10.389Z,951.16
2022-11-16T12:29:11.575Z,951.06
2022-11-16T12:34:12.833Z,951.03
2022-11-16T12:39:14.611Z,950.94
2022-11-16T12:44:16.740Z,950.92
2022-11-16T12:49:18.019Z,950.83
2022-11-16T12:54:19.519Z,950.9
2022-11-16T12:59:21.098Z,950.84
2022-11-16T13:04:22.865Z,950.78
2022-11-16T13:09:24.856Z,950.76
2022-11-16T13:14:26.494Z,950.77
2022-11-16T13:19:28.384Z,950.74
2022-11-16T13:24:30.294Z,950.75
2022-11-16T13:29:32.457Z,950.79
2022-11-16T13:34:34.271Z,950.76
2022-11-16T13:39:35.959Z,950.71
2022-11-16T13:44:38.131Z,950.71
2022-11-16T13:49:39.501Z,950.71
2022-11-16T13:54:45.942Z,950.64
2022-11-16T13:59:43.454Z,950.76
2022-11-16T14:04:45.196Z,950.79
2022-11-16T14:09:46.876Z,950.65
2022-11-16T14:14:48.634Z,950.63
2022-11-16T14:19:50.963Z,950.53
2022-11-16T14:24:51.996Z,950.54
2022-11-16T14:29:53.727Z,950.52
2022-11-16T14:34:55.072Z,950.33
2022-11-16T14:39:57.168Z,950.36
2022-11-16T14:44:59.289Z,950.43
2022-11-16T14:50:01.001Z,950.45
2022-11-16T14:55:02.147Z,950.42
2022-11-16T15:00:03.957Z,950.35
2022-11-16T15:05:05.883Z,950.25
2022-11-16T15:10:07.572Z,950.23
2022-11-16T15:15:08.851Z,950.22
2022-11-16T15:20:10.339Z,950.24
2022-11-16T15:25:11.601Z,950.2
2022-11-16T15:30:13.638Z,950.22
2022-11-16T15:35:15.627Z,950.11
2022-11-16T15:40:17.340Z,949.96
2022-11-16T15:45:19.106Z,950.09
2022-11-16T15:50:20.572Z,950.08
2022-11-16T15:55:21.930Z,950.06
2022-11-16T16:00:23.039Z,950.11
2022-11-16T16:05:24.687Z,950.08
2022-11-16T16:10:26.295Z,950.1
2022-11-16T16:15:28.238Z,950.07
2022-11-16T16:20:30.314Z,950.16
2022-11-16T16:25:31.434Z,950.1
2022-11-16T16:30:32.811Z,950.09
2022-11-16T16:35:34.366Z,950.1
2022-11-16T16:40:35.857Z,950.11
2022-11-16T16:45:37.408Z,950.05
2022-11-16T16:50:38.806Z,950.07
2022-11-16T16:55:40.832Z,950.15
2022-11-16T17:00:42.943Z,950.07
2022-11-16T17:05:44.963Z,950.03
2022-11-16T17:10:46.990Z,950.07
2022-11-16T17:15:48.560Z,950.01
2022-11-16T17:20:50.455Z,950.07
2022-11-16T17:25:52.383Z,950.03
2022-11-16T17:30:53.766Z,950.02
2022-11-16T17:35:55.832Z,949.86
2022-11-16T17:40:57.356Z,949.88
2022-11-16T17:45:59.311Z,949.84
2022-11-16T17:51:00.719Z,949.74
2022-11-16T18:06:06.249Z,949.85
2022-11-16T18:11:07.395Z,949.82
2022-11-16T18:26:12.685Z,949.62
2022-11-16T18:31:14.079Z,949.47
2022-11-16T18:36:15.980Z,949.47
2022-11-16T18:41:17.939Z,949.39
2022-11-16T18:51:21.413Z,949.29
2022-11-16T19:06:26.851Z,949.17
2022-11-16T19:11:28.277Z,949.08
2022-11-16T19:16:29.862Z,949.01
2022-11-16T19:21:31.348Z,949.05
2022-11-16T19:26:33.007Z,949.07
2022-11-16T19:31:34.487Z,948.96
2022-11-16T19:36:35.905Z,948.88
2022-11-16T19:41:37.185Z,948.86
2022-11-16T19:46:38.750Z,948.77
2022-11-16T19:51:47.195Z,948.66
2022-11-16T19:56:53.701Z,948.74
2022-11-16T20:01:50.535Z,948.65
2022-11-16T20:06:52.269Z,948.75
2022-11-16T20:11:53.814Z,948.67
2022-11-16T20:16:54.977Z,948.6
2022-11-16T20:21:57.104Z,948.55
2022-11-16T20:26:59.390Z,948.57
2022-11-16T20:32:00.815Z,948.7
2022-11-16T20:37:03.011Z,948.69
2022-11-16T20:42:05.026Z,948.62
2022-11-16T20:47:06.453Z,948.63
2022-11-16T20:52:08.465Z,948.66
2022-11-16T20:57:10.314Z,948.58
2022-11-16T21:02:12.302Z,948.56
2022-11-16T21:07:13.879Z,948.55
2022-11-16T21:12:15.810Z,948.57
2022-11-16T21:17:17.399Z,948.61
2022-11-16T21:22:19.224Z,948.6
2022-11-16T21:27:21.071Z,948.61
2022-11-16T21:32:23.105Z,948.71
2022-11-16T21:37:25.260Z,948.84
2022-11-16T21:42:27.370Z,948.8
2022-11-16T21:47:28.633Z,948.81
2022-11-16T21:52:30.174Z,948.67
2022-11-16T21:57:32.239Z,948.47
2022-11-16T22:02:34.295Z,948.23
2022-11-16T22:07:35.855Z,948.19
2022-11-16T22:12:37.358Z,948.21
2022-11-16T22:17:38.386Z,948.3
2022-11-16T22:22:40.427Z,948.39
2022-11-16T22:27:58.659Z,948.45
2022-11-16T22:32:43.233Z,948.42
2022-11-16T22:37:45.035Z,948.33
2022-11-16T22:42:46.536Z,948.24
2022-11-16T22:47:49.656Z,948.17
2022-11-16T22:52:49.463Z,948.12
2022-11-16T22:57:51.696Z,948.17
2022-11-16T23:12:56.624Z,948.05
2022-11-16T23:17:58.613Z,947.87
2022-11-16T23:23:00.264Z,947.87
2022-11-16T23:28:01.754Z,947.89
2022-11-16T23:33:03.509Z,947.78
2022-11-16T23:38:05.577Z,947.8
2022-11-16T23:43:07.806Z,947.66
2022-11-16T23:48:09.003Z,947.54
2022-11-16T23:53:10.825Z,947.51
2022-11-16T23:58:12.693Z,947.42
